Time;durP1;ratioP1;P1;durP2;ratioP2;P2;SDS_P1;SDS_P2;PMS_P1;PMS_P2;Temp;Humidity;BMP_temperature;BMP_pressure;BME280_temperature;BME280_humidity;BME280_pressure;Samples;Min_cycle;Max_cycle;Signal;HPM_P1;HPM_P2
2022/07/01 00:02:00;;;;;;;1.05;0.85;;;13.60;99.90;;;;;;5016604;28;20196;-53
2022/07/01 00:04:27;;;;;;;1.08;0.93;;;13.60;99.90;;;;;;5016689;28;20252;-52
2022/07/01 00:06:56;;;;;;;1.75;1.20;;;13.60;99.90;;;;;;5016330;28;20180;-55
2022/07/01 00:09:22;;;;;;;1.58;1.10;;;13.60;99.90;;;;;;4998841;28;20568;-50
2022/07/01 00:11:48;;;;;;;1.00;0.88;;;13.60;99.90;;;;;;5016388;28;20637;-53
2022/07/01 00:14:14;;;;;;;1.10;1.00;;;13.60;99.90;;;;;;5016339;28;20645;-55
2022/07/01 00:16:40;;;;;;;1.38;1.20;;;13.60;99.90;;;;;;5016111;28;20656;-50
2022/07/01 00:19:06;;;;;;;1.23;1.13;;;13.50;99.90;;;;;;4999027;28;20181;-52
2022/07/01 00:21:32;;;;;;;1.90;1.15;;;13.60;99.90;;;;;;4998629;28;20203;-54
2022/07/01 00:23:58;;;;;;;1.15;1.05;;;13.50;99.90;;;;;;5016066;28;20175;-52
2022/07/01 00:26:24;;;;;;;1.27;1.15;;;13.50;99.90;;;;;;4998304;28;20514;-53
2022/07/01 00:28:50;;;;;;;2.20;1.27;;;13.60;99.90;;;;;;5016015;28;20212;-53
2022/07/01 00:31:16;;;;;;;1.17;1.08;;;13.50;99.90;;;;;;4998610;28;20176;-50
2022/07/01 00:33:42;;;;;;;1.42;0.93;;;13.50;99.90;;;;;;4998780;28;20648;-52
2022/07/01 00:36:07;;;;;;;1.55;1.13;;;13.50;99.90;;;;;;5015782;28;20212;-54
2022/07/01 00:38:33;;;;;;;1.15;0.80;;;13.60;99.90;;;;;;4998289;28;20204;-53
2022/07/01 00:40:59;;;;;;;1.73;1.05;;;13.50;99.90;;;;;;5015928;28;20185;-53
2022/07/01 00:43:25;;;;;;;1.50;1.20;;;13.50;99.90;;;;;;5015951;28;20177;-50
2022/07/01 00:45:52;;;;;;;1.05;0.95;;;13.50;99.90;;;;;;4998262;28;20204;-53
2022/07/01 00:48:19;;;;;;;2.33;1.10;;;13.50;99.90;;;;;;5015657;28;20176;-50
2022/07/01 00:50:45;;;;;;;1.30;1.02;;;13.50;99.90;;;;;;5015461;28;20185;-54
2022/07/01 00:53:12;;;;;;;2.03;1.35;;;13.50;99.90;;;;;;5015835;28;20548;-52
2022/07/01 00:55:38;;;;;;;1.65;1.10;;;13.50;99.90;;;;;;4998269;28;20173;-53
2022/07/01 00:58:04;;;;;;;1.25;1.05;;;13.40;99.90;;;;;;5015477;28;20219;-53
2022/07/01 01:00:30;;;;;;;1.30;1.10;;;13.50;99.90;;;;;;4997679;28;20645;-50
2022/07/01 01:02:56;;;;;;;1.17;1.00;;;13.40;99.90;;;;;;5015332;28;20196;-52
2022/07/01 01:05:22;;;;;;;1.38;1.00;;;13.40;99.90;;;;;;4997811;28;20179;-54
2022/07/01 01:07:50;;;;;;;1.77;1.30;;;13.50;99.90;;;;;;4998068;28;20577;-53
2022/07/01 01:10:16;;;;;;;1.63;1.20;;;13.50;99.90;;;;;;5015301;28;20264;-51
2022/07/01 01:12:42;;;;;;;1.50;1.20;;;13.50;99.90;;;;;;5015119;28;20181;-53
2022/07/01 01:15:08;;;;;;;1.48;1.13;;;13.60;99.90;;;;;;5015197;28;20172;-54
2022/07/01 01:17:34;;;;;;;1.48;1.25;;;13.60;99.90;;;;;;5015054;28;20348;-53
2022/07/01 01:20:00;;;;;;;1.00;0.90;;;13.60;99.90;;;;;;5015034;28;20387;-54
2022/07/01 01:22:26;;;;;;;1.48;1.30;;;13.50;99.90;;;;;;4981422;28;20184;-52
2022/07/01 01:24:52;;;;;;;1.50;1.13;;;13.60;99.90;;;;;;5015109;28;20177;-53
2022/07/01 01:27:18;;;;;;;1.58;1.48;;;13.60;99.90;;;;;;5014862;28;20542;-51
2022/07/01 01:29:44;;;;;;;1.00;0.90;;;13.50;99.90;;;;;;5014595;28;20216;-55
2022/07/01 01:32:09;;;;;;;2.20;1.50;;;13.40;99.90;;;;;;5014893;28;20176;-53
2022/07/01 01:34:37;;;;;;;2.17;1.13;;;13.40;99.90;;;;;;5014640;28;20176;-52
2022/07/01 01:37:04;;;;;;;1.63;1.20;;;13.30;99.90;;;;;;4997260;28;20215;-54
2022/07/01 01:39:30;;;;;;;1.48;1.08;;;13.30;99.90;;;;;;5014347;28;20177;-53
2022/07/01 01:41:56;;;;;;;1.48;1.38;;;13.30;99.90;;;;;;4997159;28;20545;-53
2022/07/01 01:44:21;;;;;;;1.40;1.25;;;13.30;99.90;;;;;;4997073;28;20209;-53
2022/07/01 01:46:47;;;;;;;1.35;1.20;;;13.30;99.90;;;;;;5014503;28;20181;-53
2022/07/01 01:49:13;;;;;;;1.30;1.13;;;13.40;99.90;;;;;;4996956;28;20181;-53
2022/07/01 01:51:39;;;;;;;1.48;1.30;;;13.40;99.90;;;;;;5014487;28;20196;-52
2022/07/01 01:54:05;;;;;;;1.20;1.10;;;13.40;99.90;;;;;;5014511;28;20638;-54
2022/07/01 01:56:31;;;;;;;1.40;1.00;;;13.40;99.90;;;;;;5014368;28;20180;-50
2022/07/01 01:58:58;;;;;;;1.50;1.20;;;13.30;99.90;;;;;;5014214;28;20252;-50
2022/07/01 02:01:24;;;;;;;1.13;1.02;;;13.30;99.90;;;;;;5014198;28;20195;-50
2022/07/01 02:03:52;;;;;;;1.73;1.23;;;13.30;99.90;;;;;;5014224;28;20503;-50
2022/07/01 02:06:22;;;;;;;1.70;1.40;;;13.30;99.90;;;;;;5014467;28;20688;-52
2022/07/01 02:08:48;;;;;;;3.50;1.48;;;13.20;99.90;;;;;;5013647;28;20197;-50
2022/07/01 02:11:14;;;;;;;1.02;0.90;;;13.20;99.90;;;;;;4996585;28;20181;-50
2022/07/01 02:13:40;;;;;;;1.83;1.27;;;13.20;99.90;;;;;;5014105;28;20223;-49
2022/07/01 02:16:06;;;;;;;1.55;1.30;;;13.20;99.90;;;;;;4996577;28;20177;-50
2022/07/01 02:18:32;;;;;;;1.15;1.05;;;13.10;99.90;;;;;;5013967;28;20208;-54
2022/07/01 02:20:58;;;;;;;1.48;1.20;;;13.10;99.90;;;;;;5014085;28;20602;-50
2022/07/01 02:23:24;;;;;;;1.40;1.30;;;13.10;99.90;;;;;;4996586;28;20177;-51
2022/07/01 02:25:50;;;;;;;1.63;1.15;;;13.10;99.90;;;;;;5014019;28;20187;-49
2022/07/01 02:28:16;;;;;;;1.60;1.38;;;13.20;99.90;;;;;;4996401;28;20534;-51
2022/07/01 02:30:42;;;;;;;1.00;1.00;;;13.20;99.90;;;;;;4996097;28;20188;-53
2022/07/01 02:33:08;;;;;;;1.38;1.25;;;13.10;99.90;;;;;;5013986;28;20551;-53
2022/07/01 02:35:36;;;;;;;2.20;1.30;;;13.20;99.90;;;;;;5014700;28;20180;-50
2022/07/01 02:38:03;;;;;;;1.60;1.20;;;13.10;99.90;;;;;;5013621;28;20216;-50
2022/07/01 02:40:29;;;;;;;1.80;1.45;;;13.10;99.90;;;;;;5013798;28;20715;-50
2022/07/01 02:42:54;;;;;;;1.90;1.25;;;13.20;99.90;;;;;;4996203;28;20181;-50
2022/07/01 02:45:20;;;;;;;1.67;1.35;;;13.10;99.90;;;;;;5013466;28;20177;-52
2022/07/01 02:47:46;;;;;;;2.03;1.38;;;13.10;99.90;;;;;;5013717;28;20240;-50
2022/07/01 02:50:13;;;;;;;1.25;1.15;;;13.10;99.90;;;;;;4979875;28;20181;-50
2022/07/01 02:52:40;;;;;;;1.90;1.33;;;13.10;99.90;;;;;;5013425;28;20222;-52
2022/07/01 02:55:11;;;;;;;1.60;1.50;;;13.10;99.90;;;;;;5013815;28;20173;-49
2022/07/01 02:57:37;;;;;;;1.17;1.05;;;13.10;99.90;;;;;;4996481;28;20207;-51
2022/07/01 03:00:05;;;;;;;2.92;1.35;;;13.10;99.90;;;;;;5013212;28;20212;-53
2022/07/01 03:02:32;;;;;;;2.20;1.45;;;13.10;99.90;;;;;;5013499;28;20173;-53
2022/07/01 03:04:58;;;;;;;1.63;1.30;;;13.10;99.90;;;;;;4996373;28;20173;-50
2022/07/01 03:07:24;;;;;;;2.08;1.58;;;13.20;99.90;;;;;;5013490;28;20176;-50
2022/07/01 03:09:51;;;;;;;1.73;1.10;;;13.20;99.90;;;;;;5013364;28;20716;-51
2022/07/01 03:12:29;;;;;;;1.55;1.40;;;13.30;99.90;;;;;;5013272;28;20169;-53
2022/07/01 03:15:15;;;;;;;2.13;1.50;;;13.30;99.90;;;;;;5013465;28;20653;-51
2022/07/01 03:17:42;;;;;;;2.35;1.92;;;13.30;99.90;;;;;;5013248;28;20214;-53
2022/07/01 03:20:11;;;;;;;1.88;1.50;;;13.30;99.90;;;;;;4995721;28;20180;-53
2022/07/01 03:22:37;;;;;;;1.48;1.33;;;13.30;99.90;;;;;;5013324;28;20164;-50
2022/07/01 03:25:04;;;;;;;1.70;1.42;;;13.20;99.90;;;;;;5013111;28;20215;-52
2022/07/01 03:27:31;;;;;;;1.88;1.48;;;13.20;99.90;;;;;;5013283;28;20187;-51
2022/07/01 03:29:57;;;;;;;1.40;1.30;;;13.20;99.90;;;;;;5012952;28;20215;-52
2022/07/01 03:32:23;;;;;;;1.40;1.30;;;13.20;99.90;;;;;;4995846;28;20216;-50
2022/07/01 03:34:51;;;;;;;1.33;1.05;;;13.20;99.90;;;;;;5013179;28;20169;-49
2022/07/01 03:37:18;;;;;;;2.63;1.70;;;13.20;99.90;;;;;;5012970;28;20227;-52
2022/07/01 03:39:45;;;;;;;1.98;1.27;;;13.10;99.90;;;;;;5013506;28;20176;-50
2022/07/01 03:42:11;;;;;;;1.52;1.25;;;13.20;99.90;;;;;;5013284;28;20256;-49
2022/07/01 03:44:37;;;;;;;2.25;1.40;;;13.20;99.90;;;;;;5013292;28;20722;-49
2022/07/01 03:47:05;;;;;;;1.25;1.13;;;13.10;99.90;;;;;;4995721;28;20440;-50
2022/07/01 03:49:34;;;;;;;1.80;1.20;;;13.10;99.90;;;;;;5012893;28;20276;-52
2022/07/01 03:52:01;;;;;;;1.83;1.40;;;13.10;99.90;;;;;;5012890;28;20227;-52
2022/07/01 03:54:30;;;;;;;1.55;1.20;;;13.10;99.90;;;;;;5013105;28;20161;-51
2022/07/01 03:57:00;;;;;;;1.63;1.42;;;13.00;99.90;;;;;;5013290;28;20181;-52
2022/07/01 03:59:27;;;;;;;1.35;1.10;;;13.00;99.90;;;;;;5012982;28;20193;-49
2022/07/01 04:01:54;;;;;;;1.23;1.10;;;12.90;99.90;;;;;;5015024;28;20173;-52
2022/07/01 04:04:20;;;;;;;1.45;1.02;;;12.90;99.90;;;;;;5016427;28;20181;-52
2022/07/01 04:06:46;;;;;;;1.35;1.10;;;12.90;99.90;;;;;;5016575;28;20180;-53
2022/07/01 04:09:15;;;;;;;1.25;1.15;;;12.90;99.90;;;;;;5016464;28;20207;-51
2022/07/01 04:11:45;;;;;;;1.30;1.20;;;12.90;99.90;;;;;;5016710;28;20260;-53
2022/07/01 04:14:11;;;;;;;2.70;1.40;;;13.00;99.90;;;;;;4999030;28;20180;-50
2022/07/01 04:16:37;;;;;;;1.27;1.15;;;13.00;99.90;;;;;;5016395;28;20165;-50
2022/07/01 04:19:03;;;;;;;1.63;1.42;;;13.00;99.90;;;;;;5016063;28;20612;-53
2022/07/01 04:24:14;;;;;;;1.70;1.20;;;13.00;99.90;;;;;;5001622;28;20196;-49
2022/07/01 04:26:40;;;;;;;1.67;1.33;;;13.10;99.90;;;;;;5016325;28;20165;-53
2022/07/01 04:29:07;;;;;;;1.65;1.50;;;13.10;99.90;;;;;;5015999;28;20177;-53
2022/07/01 04:31:37;;;;;;;1.67;1.45;;;13.10;99.90;;;;;;4998585;28;20211;-51
2022/07/01 04:34:04;;;;;;;1.75;1.55;;;13.00;99.90;;;;;;4999199;28;20181;-53
2022/07/01 04:36:29;;;;;;;1.85;1.35;;;13.00;99.90;;;;;;4998726;28;20200;-53
2022/07/01 04:38:56;;;;;;;2.08;1.20;;;13.10;99.90;;;;;;4998527;28;20696;-51
2022/07/01 04:44:06;;;;;;;1.30;1.13;;;13.20;99.90;;;;;;5001263;28;20640;-50
2022/07/01 04:46:32;;;;;;;1.30;1.20;;;13.10;99.90;;;;;;4998159;28;20173;-54
2022/07/01 04:48:57;;;;;;;1.42;1.33;;;13.10;99.90;;;;;;5014662;28;20256;-50
2022/07/01 04:51:23;;;;;;;1.50;1.13;;;13.10;99.90;;;;;;4997050;28;20211;-50
2022/07/01 04:53:49;;;;;;;1.67;1.33;;;13.10;99.90;;;;;;5014659;28;20259;-52
2022/07/01 04:56:15;;;;;;;2.42;1.27;;;13.00;99.90;;;;;;5014594;28;20173;-54
2022/07/01 04:58:41;;;;;;;1.80;1.38;;;13.10;99.90;;;;;;5014207;28;20284;-53
2022/07/01 05:01:06;;;;;;;1.80;1.48;;;13.00;99.90;;;;;;4996879;28;20280;-59
2022/07/01 05:03:32;;;;;;;1.90;1.45;;;13.10;99.90;;;;;;4997271;28;20180;-54
2022/07/01 05:05:58;;;;;;;1.80;1.25;;;13.10;99.90;;;;;;4997206;28;20187;-54
2022/07/01 05:08:24;;;;;;;1.50;1.27;;;13.20;99.90;;;;;;4983263;28;20176;-53
2022/07/01 05:10:49;;;;;;;1.65;1.50;;;13.30;99.90;;;;;;4996637;28;20519;-53
2022/07/01 05:13:15;;;;;;;2.13;1.52;;;13.30;99.90;;;;;;5010372;28;20177;-55
2022/07/01 05:15:41;;;;;;;1.67;1.52;;;13.40;99.90;;;;;;5011731;28;20343;-55
2022/07/01 05:23:35;;;;;;;2.40;1.65;;;13.40;99.90;;;;;;5014130;28;20542;-49
2022/07/01 05:26:01;;;;;;;2.70;1.55;;;13.50;99.90;;;;;;5014214;28;20198;-50
2022/07/01 05:28:27;;;;;;;2.05;1.40;;;13.50;99.90;;;;;;5014061;28;20181;-50
2022/07/01 05:30:53;;;;;;;1.67;1.50;;;13.40;99.90;;;;;;5014164;28;20264;-53
2022/07/01 05:33:21;;;;;;;2.33;1.67;;;13.40;99.90;;;;;;5013983;28;20338;-50
2022/07/01 05:35:47;;;;;;;1.77;1.38;;;13.50;99.90;;;;;;5014058;28;20183;-52
2022/07/01 05:38:13;;;;;;;2.30;1.10;;;13.50;99.90;;;;;;4996356;28;20657;-51
2022/07/01 05:40:39;;;;;;;1.30;1.20;;;13.60;99.90;;;;;;5013753;28;20183;-50
2022/07/01 05:43:04;;;;;;;1.40;1.30;;;13.60;99.90;;;;;;4996155;28;20177;-55
2022/07/01 05:45:30;;;;;;;2.30;1.80;;;13.80;99.90;;;;;;4996273;28;20176;-49
2022/07/01 05:47:56;;;;;;;1.33;1.13;;;13.90;99.90;;;;;;5013680;28;20177;-50
2022/07/01 05:50:23;;;;;;;2.90;1.60;;;14.00;99.90;;;;;;5013623;28;20185;-50
2022/07/01 05:52:48;;;;;;;1.77;1.52;;;14.00;99.90;;;;;;5013542;28;20256;-49
2022/07/01 05:55:14;;;;;;;1.70;1.50;;;14.00;99.90;;;;;;5013579;28;20260;-49
2022/07/01 05:57:40;;;;;;;1.73;1.45;;;14.00;99.90;;;;;;5013570;28;20215;-53
2022/07/01 06:00:06;;;;;;;2.13;1.45;;;14.00;99.90;;;;;;4995865;28;20193;-50
2022/07/01 06:02:32;;;;;;;1.45;1.15;;;14.20;99.90;;;;;;5013354;28;20259;-52
2022/07/01 06:04:59;;;;;;;1.65;1.30;;;14.30;99.90;;;;;;4995854;28;20246;-50
2022/07/01 06:07:25;;;;;;;1.48;1.23;;;14.50;99.90;;;;;;4995968;28;20183;-50
2022/07/01 06:09:51;;;;;;;1.45;1.35;;;14.50;99.90;;;;;;5011966;28;20539;-50
2022/07/01 06:12:16;;;;;;;1.10;1.00;;;14.70;99.90;;;;;;5013214;28;20234;-51
2022/07/01 06:14:42;;;;;;;1.50;1.17;;;14.90;99.90;;;;;;4995726;28;20243;-49
2022/07/01 06:17:09;;;;;;;1.55;1.45;;;14.90;99.90;;;;;;5013155;28;20261;-49
2022/07/01 06:19:35;;;;;;;1.35;1.17;;;15.10;99.90;;;;;;4995755;28;20232;-52
2022/07/01 06:22:00;;;;;;;1.17;1.08;;;15.10;99.90;;;;;;5012880;28;20234;-52
2022/07/01 06:24:26;;;;;;;1.30;1.00;;;15.20;99.90;;;;;;5012914;28;20223;-51
2022/07/01 06:26:52;;;;;;;1.35;0.88;;;15.30;99.90;;;;;;5013175;28;20169;-54
2022/07/01 06:29:17;;;;;;;0.95;0.90;;;15.30;99.90;;;;;;5013482;28;20664;-51
2022/07/01 06:31:43;;;;;;;1.13;1.02;;;15.50;99.90;;;;;;4995489;28;20176;-51
2022/07/01 06:34:09;;;;;;;0.82;0.82;;;15.50;99.90;;;;;;4979198;28;20658;-52
2022/07/01 06:36:34;;;;;;;1.15;0.95;;;15.50;99.90;;;;;;5012837;28;20637;-53
2022/07/01 06:39:00;;;;;;;0.70;0.70;;;15.60;99.90;;;;;;4995453;28;20616;-50
2022/07/01 06:41:26;;;;;;;1.27;1.10;;;15.70;99.90;;;;;;5013035;28;20705;-51
2022/07/01 06:43:53;;;;;;;1.20;0.90;;;15.60;99.90;;;;;;5012472;28;20187;-52
2022/07/01 06:46:19;;;;;;;0.98;0.88;;;15.60;99.90;;;;;;5012598;28;20210;-53
2022/07/01 06:48:45;;;;;;;1.65;0.88;;;15.70;99.90;;;;;;5012072;28;20223;-53
2022/07/01 06:51:11;;;;;;;0.98;0.77;;;15.90;99.90;;;;;;5028980;28;20199;-49
2022/07/01 06:53:37;;;;;;;1.35;0.90;;;15.80;99.90;;;;;;5031925;28;20592;-51
2022/07/01 06:56:03;;;;;;;0.77;0.70;;;16.00;99.90;;;;;;5031564;28;20180;-50
2022/07/01 06:58:28;;;;;;;0.77;0.77;;;16.00;99.90;;;;;;5031964;28;20199;-50
2022/07/01 07:00:54;;;;;;;0.82;0.60;;;16.30;99.90;;;;;;5014424;28;20219;-50
2022/07/01 07:03:20;;;;;;;0.93;0.80;;;16.30;99.90;;;;;;5032076;28;20180;-51
2022/07/01 07:05:46;;;;;;;0.85;0.77;;;16.60;99.90;;;;;;5014383;28;20183;-52
2022/07/01 07:08:12;;;;;;;0.70;0.68;;;16.90;99.90;;;;;;5032209;28;20636;-50
2022/07/01 07:10:37;;;;;;;0.85;0.80;;;16.80;99.90;;;;;;5031999;28;20272;-50
2022/07/01 07:13:03;;;;;;;0.95;0.90;;;16.90;99.90;;;;;;5032129;28;20259;-51
2022/07/01 07:15:29;;;;;;;1.02;0.80;;;16.90;99.90;;;;;;5032185;28;20230;-53
2022/07/01 07:17:57;;;;;;;0.60;0.60;;;17.00;99.90;;;;;;5013676;28;20286;-54
2022/07/01 07:20:26;;;;;;;0.65;0.65;;;16.90;99.90;;;;;;5031345;28;20239;-50
2022/07/01 07:22:52;;;;;;;0.88;0.80;;;16.70;99.90;;;;;;5032119;28;20195;-52
2022/07/01 07:25:18;;;;;;;0.63;0.63;;;16.80;99.90;;;;;;5032226;28;20172;-53
2022/07/01 07:27:46;;;;;;;0.70;0.70;;;16.70;99.90;;;;;;5014551;28;20190;-53
2022/07/01 07:30:17;;;;;;;0.60;0.60;;;16.70;99.90;;;;;;5031951;28;20617;-54
2022/07/01 07:32:44;;;;;;;0.32;0.32;;;16.80;99.90;;;;;;5031913;28;20501;-49
2022/07/01 07:35:11;;;;;;;0.75;0.70;;;17.00;99.90;;;;;;5032087;28;20175;-53
2022/07/01 07:37:36;;;;;;;0.45;0.40;;;17.20;99.90;;;;;;5017754;28;20199;-50
2022/07/01 07:40:06;;;;;;;1.30;0.82;;;17.50;99.90;;;;;;5035877;28;20176;-52
2022/07/01 07:42:32;;;;;;;0.50;0.50;;;17.60;99.90;;;;;;5035764;28;20176;-53
2022/07/01 07:44:58;;;;;;;0.65;0.60;;;17.70;99.90;;;;;;5035693;28;20218;-54
2022/07/01 07:47:24;;;;;;;0.40;0.30;;;17.60;99.90;;;;;;5018031;28;20187;-49
2022/07/01 07:49:50;;;;;;;0.30;0.28;;;17.60;99.90;;;;;;5018010;28;20180;-51
2022/07/01 07:52:15;;;;;;;0.30;0.30;;;17.50;99.90;;;;;;5035721;28;20180;-53
2022/07/01 07:54:41;;;;;;;0.30;0.30;;;17.40;99.90;;;;;;5017872;28;20176;-53
2022/07/01 07:57:07;;;;;;;1.17;0.57;;;17.60;99.90;;;;;;5035738;28;20540;-52
2022/07/01 07:59:34;;;;;;;0.40;0.40;;;17.60;99.90;;;;;;5035368;28;20346;-54
2022/07/01 08:02:00;;;;;;;1.90;0.70;;;17.60;99.90;;;;;;5035618;28;20278;-53
2022/07/01 08:04:26;;;;;;;0.30;0.30;;;17.90;99.90;;;;;;5035593;28;20263;-51
2022/07/01 08:06:51;;;;;;;0.40;0.40;;;18.00;99.90;;;;;;5035391;28;20172;-51
2022/07/01 08:09:18;;;;;;;0.52;0.30;;;17.90;99.90;;;;;;5035253;28;20191;-53
2022/07/01 08:11:44;;;;;;;0.30;0.30;;;18.00;99.90;;;;;;5017494;28;20204;-54
2022/07/01 08:14:09;;;;;;;2.38;0.30;;;18.20;99.90;;;;;;5035176;28;20218;-54
2022/07/01 08:16:35;;;;;;;1.23;0.30;;;18.40;99.90;;;;;;5035109;28;20230;-51
2022/07/01 08:19:02;;;;;;;1.75;0.25;;;18.30;99.90;;;;;;5017429;28;20204;-52
2022/07/01 08:21:28;;;;;;;0.22;0.22;;;18.00;99.90;;;;;;5035224;28;20190;-53
2022/07/01 08:23:54;;;;;;;0.28;0.28;;;17.90;99.90;;;;;;5035084;28;20172;-53
2022/07/01 08:26:20;;;;;;;0.20;0.20;;;18.10;99.90;;;;;;5035399;28;20194;-52
2022/07/01 08:28:46;;;;;;;0.75;0.75;;;18.30;99.90;;;;;;5017157;28;20629;-53
2022/07/01 08:31:11;;;;;;;0.73;0.73;;;18.30;99.90;;;;;;5034782;28;20180;-54
2022/07/01 08:33:37;;;;;;;0.90;0.30;;;18.60;99.90;;;;;;5017244;28;20183;-53
2022/07/01 08:36:04;;;;;;;0.30;0.30;;;18.40;99.90;;;;;;5017296;28;20183;-53
2022/07/01 08:38:30;;;;;;;0.30;0.30;;;18.40;99.90;;;;;;5034846;28;20210;-53
2022/07/01 08:40:56;;;;;;;0.30;0.30;;;18.40;99.90;;;;;;5000660;28;20633;-49
2022/07/01 08:43:21;;;;;;;0.20;0.20;;;18.10;99.90;;;;;;5034717;28;20176;-50
2022/07/01 08:45:50;;;;;;;0.20;0.20;;;18.00;99.90;;;;;;5034494;28;20195;-51
2022/07/01 08:48:16;;;;;;;0.20;0.20;;;17.50;99.90;;;;;;5034511;28;20609;-49
2022/07/01 08:50:41;;;;;;;0.30;0.30;;;17.80;99.90;;;;;;5017262;28;20207;-49
2022/07/01 08:53:09;;;;;;;0.90;0.32;;;18.20;99.90;;;;;;5034597;28;20337;-50
2022/07/01 08:56:40;;;;;;;0.30;0.30;;;18.40;99.90;;;;;;5034565;28;20229;-51
2022/07/01 08:58:26;;;;;;;0.20;0.20;;;18.30;99.90;;;;;;5034078;28;20226;-50
2022/07/01 09:00:53;;;;;;;0.30;0.30;;;18.10;99.90;;;;;;5034340;28;20698;-50
2022/07/01 09:03:22;;;;;;;0.30;0.30;;;17.90;99.90;;;;;;5016855;28;20524;-52
2022/07/01 09:05:51;;;;;;;0.30;0.30;;;18.20;99.90;;;;;;5016629;28;20211;-50
2022/07/01 09:08:17;;;;;;;1.75;0.30;;;18.60;99.90;;;;;;5034265;28;20184;-52
2022/07/01 09:10:44;;;;;;;0.73;0.30;;;19.10;99.90;;;;;;5034004;28;20219;-53
2022/07/01 09:13:12;;;;;;;0.38;0.20;;;19.30;99.90;;;;;;5034145;28;20190;-53
2022/07/01 09:15:39;;;;;;;0.40;0.40;;;19.60;99.90;;;;;;5034221;28;20176;-54
2022/07/01 09:18:09;;;;;;;0.30;0.30;;;19.60;99.90;;;;;;5033906;28;20195;-51
2022/07/01 09:20:37;;;;;;;0.45;0.40;;;20.00;99.90;;;;;;5033993;28;20187;-52
2022/07/01 09:23:06;;;;;;;0.40;0.40;;;19.90;99.90;;;;;;5033759;28;20331;-52
2022/07/01 09:25:43;;;;;;;0.57;0.30;;;19.80;99.90;;;;;;5034051;28;20208;-52
2022/07/01 09:28:15;;;;;;;0.20;0.20;;;19.90;99.90;;;;;;5033756;28;20171;-51
2022/07/01 09:30:44;;;;;;;0.20;0.20;;;20.10;99.90;;;;;;5033660;28;20581;-51
2022/07/01 09:33:16;;;;;;;0.20;0.20;;;20.00;99.90;;;;;;5033693;28;20176;-50
2022/07/01 09:35:43;;;;;;;0.45;0.22;;;20.00;99.90;;;;;;5033594;28;20179;-51
2022/07/01 09:38:14;;;;;;;0.40;0.40;;;19.50;99.90;;;;;;5033723;28;20204;-50
2022/07/01 09:40:58;;;;;;;0.93;0.43;;;19.50;99.90;;;;;;5034024;28;20187;-53
2022/07/01 09:43:32;;;;;;;0.30;0.30;;;19.20;99.90;;;;;;5034205;28;20243;-52
2022/07/01 09:46:00;;;;;;;0.25;0.25;;;19.60;99.90;;;;;;5034334;28;20506;-51
2022/07/01 09:48:32;;;;;;;0.28;0.28;;;19.70;99.90;;;;;;5034213;28;20180;-50
2022/07/01 09:50:59;;;;;;;0.65;0.38;;;19.80;99.90;;;;;;5016648;28;20637;-53
2022/07/01 09:53:24;;;;;;;0.20;0.20;;;19.70;99.90;;;;;;5034317;28;20176;-52
2022/07/01 09:55:50;;;;;;;0.90;0.30;;;19.90;99.90;;;;;;5016463;28;20187;-53
2022/07/01 09:58:16;;;;;;;0.25;0.25;;;20.00;99.90;;;;;;5015981;28;20214;-53
2022/07/01 10:00:43;;;;;;;0.20;0.20;;;20.40;99.90;;;;;;4999400;28;20208;-51
2022/07/01 10:03:09;;;;;;;0.20;0.20;;;20.90;99.90;;;;;;5033962;28;20176;-50
2022/07/01 10:05:48;;;;;;;0.35;0.30;;;20.80;99.90;;;;;;5016571;28;20172;-52
2022/07/01 10:08:20;;;;;;;0.20;0.20;;;20.40;99.90;;;;;;5016498;28;20184;-51
2022/07/01 10:10:54;;;;;;;0.30;0.30;;;20.50;99.90;;;;;;5016297;28;20572;-53
2022/07/01 10:13:25;;;;;;;0.10;0.10;;;20.80;99.90;;;;;;5033866;28;20222;-52
2022/07/01 10:15:52;;;;;;;1.05;0.30;;;20.80;99.90;;;;;;5034087;28;20214;-53
2022/07/01 10:18:27;;;;;;;1.23;0.40;;;20.90;99.90;;;;;;5016192;28;20207;-53
2022/07/01 10:20:54;;;;;;;0.30;0.30;;;20.30;99.90;;;;;;5033848;28;20179;-54
2022/07/01 10:23:22;;;;;;;0.43;0.20;;;19.90;99.90;;;;;;5033735;28;20253;-53
2022/07/01 10:25:53;;;;;;;0.25;0.25;;;19.50;99.90;;;;;;5033598;28;20590;-51
2022/07/01 10:28:26;;;;;;;0.30;0.30;;;19.40;99.90;;;;;;5034014;28;20234;-53
2022/07/01 10:31:09;;;;;;;0.30;0.30;;;19.10;99.90;;;;;;5015746;28;20192;-51
2022/07/01 10:33:38;;;;;;;0.38;0.38;;;18.80;99.90;;;;;;5033670;28;20191;-54
2022/07/01 10:36:23;;;;;;;0.30;0.30;;;18.70;99.90;;;;;;5033356;28;20259;-49
2022/07/01 10:39:00;;;;;;;0.52;0.30;;;18.50;99.90;;;;;;5033551;28;20277;-53
2022/07/01 10:41:31;;;;;;;0.20;0.20;;;18.50;99.90;;;;;;5033775;28;20176;-54
2022/07/01 10:43:57;;;;;;;0.40;0.40;;;18.50;99.90;;;;;;5016440;28;20164;-51
2022/07/01 10:46:44;;;;;;;0.43;0.43;;;18.70;99.90;;;;;;5033275;28;20176;-54
2022/07/01 10:49:18;;;;;;;0.47;0.47;;;19.30;99.90;;;;;;5033267;28;20180;-54
2022/07/01 10:51:58;;;;;;;1.23;0.30;;;20.00;99.90;;;;;;5033297;28;20545;-53
2022/07/01 10:54:39;;;;;;;0.43;0.43;;;20.60;99.90;;;;;;5033285;28;20672;-50
2022/07/01 10:57:19;;;;;;;0.43;0.32;;;20.80;99.90;;;;;;5032978;28;20175;-52
2022/07/01 11:00:16;;;;;;;1.67;0.40;;;20.90;99.90;;;;;;5033306;28;20637;-53
2022/07/01 11:02:42;;;;;;;0.40;0.40;;;20.90;99.90;;;;;;5015356;28;20175;-53
2022/07/01 11:05:11;;;;;;;0.30;0.30;;;21.00;99.90;;;;;;5033060;28;20218;-53
2022/07/01 11:07:42;;;;;;;0.30;0.30;;;20.90;99.90;;;;;;5033068;28;20172;-51
2022/07/01 11:10:12;;;;;;;1.08;0.20;;;20.80;99.90;;;;;;5034268;28;20183;-50
2022/07/01 11:12:39;;;;;;;0.70;0.40;;;20.60;99.90;;;;;;5019672;28;20514;-54
2022/07/01 11:15:06;;;;;;;1.10;1.00;;;20.30;99.90;;;;;;5019533;28;20629;-51
2022/07/01 11:17:32;;;;;;;0.25;0.25;;;19.90;99.90;;;;;;5037178;28;20211;-53
2022/07/01 11:20:01;;;;;;;0.30;0.30;;;19.80;99.90;;;;;;5019738;28;20188;-50
2022/07/01 11:22:30;;;;;;;1.75;0.30;;;19.90;99.90;;;;;;5037182;28;20176;-52
2022/07/01 11:25:01;;;;;;;0.25;0.22;;;19.60;99.90;;;;;;5019349;28;20175;-50
2022/07/01 11:27:28;;;;;;;0.25;0.25;;;19.40;99.90;;;;;;5037103;28;20179;-53
2022/07/01 11:29:59;;;;;;;0.57;0.22;;;19.40;99.90;;;;;;5019089;28;20266;-53
2022/07/01 11:32:54;;;;;;;0.10;0.10;;;19.20;99.90;;;;;;5036877;28;20172;-53
2022/07/01 11:41:05;;;;;;;0.20;0.20;;;18.90;99.90;;;;;;5037164;28;20256;-53
2022/07/01 11:43:33;;;;;;;0.45;0.30;;;18.90;99.90;;;;;;5019002;28;20173;-53
2022/07/01 11:46:01;;;;;;;0.65;0.20;;;19.50;99.90;;;;;;5018970;28;20176;-54
2022/07/01 11:48:38;;;;;;;0.20;0.20;;;20.10;99.90;;;;;;5036600;28;20176;-55
2022/07/01 11:51:12;;;;;;;0.32;0.22;;;20.70;99.90;;;;;;5036638;28;20171;-54
2022/07/01 11:53:41;;;;;;;0.20;0.20;;;21.10;99.90;;;;;;5036756;28;20163;-55
2022/07/01 11:56:07;;;;;;;0.10;0.10;;;21.30;99.90;;;;;;5019165;28;20212;-54
2022/07/01 11:58:42;;;;;;;0.95;0.50;;;21.70;99.90;;;;;;5018818;28;20235;-53
2022/07/01 12:01:08;;;;;;;0.57;0.10;;;21.90;99.90;;;;;;5036268;28;20187;-51
2022/07/01 12:03:35;;;;;;;0.15;0.15;;;22.10;99.90;;;;;;5036233;28;20217;-50
2022/07/01 12:06:02;;;;;;;1.75;0.20;;;22.00;99.90;;;;;;5036425;28;20180;-52
2022/07/01 12:08:28;;;;;;;0.15;0.15;;;22.20;99.90;;;;;;5036507;28;20249;-50
2022/07/01 12:10:54;;;;;;;0.10;0.10;;;21.80;99.90;;;;;;5036179;28;20168;-53
2022/07/01 12:13:24;;;;;;;0.10;0.10;;;21.60;99.90;;;;;;5036246;28;20615;-51
2022/07/01 12:15:49;;;;;;;0.28;0.20;;;21.70;99.90;;;;;;5036222;28;20395;-50
2022/07/01 12:18:16;;;;;;;0.30;0.30;;;21.80;99.90;;;;;;5035853;28;20199;-52
2022/07/01 12:20:50;;;;;;;0.15;0.15;;;22.00;99.90;;;;;;5036134;28;20289;-51
2022/07/01 12:23:16;;;;;;;0.20;0.20;;;22.10;99.90;;;;;;5017710;28;20237;-53
2022/07/01 12:25:50;;;;;;;0.57;0.30;;;22.00;99.90;;;;;;5036246;28;20229;-52
2022/07/01 12:28:32;;;;;;;0.98;0.65;;;21.80;99.90;;;;;;5035999;28;20184;-51
2022/07/01 12:31:01;;;;;;;0.20;0.20;;;21.50;99.90;;;;;;5035769;28;20659;-51
2022/07/01 12:33:27;;;;;;;0.40;0.20;;;21.00;99.90;;;;;;5035890;28;20180;-50
2022/07/01 12:35:54;;;;;;;1.20;0.75;;;20.60;99.90;;;;;;5035720;28;20180;-51
2022/07/01 12:38:19;;;;;;;0.10;0.10;;;20.10;99.90;;;;;;5035535;28;20232;-51
2022/07/01 12:40:45;;;;;;;0.93;0.10;;;19.90;99.90;;;;;;5035704;28;20215;-52
2022/07/01 12:43:33;;;;;;;0.25;0.25;;;19.90;99.90;;;;;;5035407;28;20191;-53
2022/07/01 12:46:00;;;;;;;0.20;0.20;;;19.70;99.90;;;;;;5035706;28;20675;-51
2022/07/01 12:48:26;;;;;;;1.35;0.10;;;19.40;99.90;;;;;;5017965;28;20184;-50
2022/07/01 12:50:56;;;;;;;0.50;0.50;;;19.10;99.90;;;;;;5035623;28;20225;-52
2022/07/01 12:53:24;;;;;;;0.20;0.20;;;18.80;99.90;;;;;;5035415;28;20183;-53
2022/07/01 12:55:57;;;;;;;0.40;0.40;;;18.50;99.90;;;;;;5035296;28;20711;-51
2022/07/01 12:58:25;;;;;;;0.75;0.40;;;18.40;99.90;;;;;;5001488;28;20207;-50
2022/07/01 13:01:00;;;;;;;1.95;0.50;;;18.30;99.90;;;;;;5035237;28;20203;-52
2022/07/01 13:03:27;;;;;;;0.35;0.30;;;18.10;99.90;;;;;;5017578;28;20530;-52
2022/07/01 13:05:55;;;;;;;0.47;0.40;;;18.00;99.90;;;;;;5034615;28;20188;-51
2022/07/01 13:08:21;;;;;;;0.40;0.40;;;17.80;99.90;;;;;;5035018;28;20172;-52